INFORMACIÓN METAR y TAF
METAR FOR ESSA
ADDS - METARS form results

(0843 UTC 01 June 2020)
Data provider http://aviationweather.gov/metar/data/
 
METAR text: ESSA 010820Z 06008KT CAVOK 20/08 Q1028 NOSIG
Conditions at: ESSA (STOCKHOLM/ARLAND, SE) observed 0820 UTC 01 June 2020
Temperature: 20.0°C (68°F)
Dewpoint: 8.0°C (46°F) [RH = 46%]
Pressure (altimeter): 30.35 inches Hg (1028.0 mb)
Winds: from the ENE (60 degrees) at 9 MPH (8 knots; 4.1 m/s)
Visibility: 6 or more miles (10+ km)
Ceiling: ceiling and visibility are OK
Clouds: unknown
Weather: no significant weather observed at this time

METAR text: ESSA 010750Z 01006KT 330V050 CAVOK 19/07 Q1028 NOSIG
Conditions at: ESSA (STOCKHOLM/ARLAND, SE) observed 0750 UTC 01 June 2020
Temperature: 19.0°C (66°F)
Dewpoint: 7.0°C (45°F) [RH = 46%]
Pressure (altimeter): 30.35 inches Hg (1028.0 mb)
Winds: from the N (10 degrees) at 7 MPH (6 knots; 3.1 m/s)
Visibility: 6 or more miles (10+ km)
Ceiling: ceiling and visibility are OK
Clouds: unknown
Weather: no significant weather observed at this time

Forecast for: ESSA (STOCKHOLM/ARLAND, SE)
Text: TAF ESSA 010530Z 0106/0206 01007KT CAVOK
Forecast period: 0600 UTC 01 June 2020 to 0600 UTC 02 June 2020
Forecast type: FROM: standard forecast or significant change
Winds: from the N (10 degrees) at 8 MPH (7 knots; 3.6 m/s)
Visibility: 6 or more miles 10+ km)
Ceiling: unknown
Clouds: missing
Weather: NSW  (no significant weather)

 MAPA DE AEROPUERTO

 INFORMACIÓN DE PISTA
Pista 01L Longitud 10830 ft Ancho 148 ft
Elevación 98 ft Umbral desplazado 0 ft Rumbo de pista 10
Pista 19R Longitud 10830 ft Ancho 148 ft
Elevación 118 ft Umbral desplazado 0 ft Rumbo de pista 190
Pista 01R Longitud 8201 ft Ancho 148 ft
Elevación 137 ft Umbral desplazado 0 ft Rumbo de pista 10
Pista 19L Longitud 8201 ft Ancho 148 ft
Elevación 98 ft Umbral desplazado 0 ft Rumbo de pista 190
Pista 08 Longitud 8202 ft Ancho 148 ft
Elevación 108 ft Umbral desplazado 0 ft Rumbo de pista 76
Pista 26 Longitud 8202 ft Ancho 148 ft
Elevación 124 ft Umbral desplazado 0 ft Rumbo de pista 256

 FRECUANCIAS DEL AEROPUERTO
Tipo APP Nombre STOCKHOLM Frecuencia 123.75 MHZ
Tipo ATIS Nombre ATIS Frecuencia 119 MHZ
Tipo CLD Nombre CLNC DEL Frecuencia 121.825 MHZ
Tipo GND Nombre GND Frecuencia 121.7 MHZ
Tipo PMSV Nombre MET OFFICE Frecuencia 122.6 MHZ
Tipo TWR Nombre TWR Frecuencia 118.5 MHZ

 RADIO AYUDAS DEL AEROPUERTO
Tipo VOR-DME Nombre Arlanda Frecuencia 116000 KHZ
Tipo NDB Nombre Arlanda Frecuencia 352 KHZ
Tipo NDB Nombre Arlanda Frecuencia 360 KHZ
Tipo NDB Nombre Arlanda Frecuencia 404 KHZ
Tipo NDB Nombre Arlanda Frecuencia 370 KHZ




Normativa | Spanair Virtual © 2020 |